createdAt,value
2023-02-14T00:01:46.484Z,101273.53
2023-02-14T00:04:13.984Z,101281.78
2023-02-14T00:06:41.305Z,101273.03
2023-02-14T00:09:10.955Z,101267.69
2023-02-14T00:11:38.858Z,101263.03
2023-02-14T00:14:24.828Z,101274.09
2023-02-14T00:16:52.223Z,101274.94
2023-02-14T00:19:20.279Z,101266.03
2023-02-14T00:21:47.980Z,101279.62
2023-02-14T00:24:16.514Z,101268.97
2023-02-14T00:26:43.683Z,101262.22
2023-02-14T00:29:11.774Z,101267.78
2023-02-14T00:31:39.523Z,101263.72
2023-02-14T00:34:06.810Z,101273.28
2023-02-14T00:36:34.191Z,101257.56
2023-02-14T00:39:05.032Z,101261.06
2023-02-14T00:41:32.396Z,101264.97
2023-02-14T00:43:59.823Z,101267.97
2023-02-14T00:46:27.394Z,101269.44
2023-02-14T00:48:55.832Z,101263.06
2023-02-14T00:51:23.215Z,101268.91
2023-02-14T00:53:51.086Z,101271.28
2023-02-14T00:56:18.466Z,101284.97
2023-02-14T00:58:45.846Z,101278.97
2023-02-14T01:01:13.545Z,101268.75
2023-02-14T01:03:40.781Z,101276.12
2023-02-14T01:06:08.059Z,101270.47
2023-02-14T01:08:35.551Z,101268.91
2023-02-14T01:11:21.600Z,101260.31
2023-02-14T01:13:49.354Z,101272.59
2023-02-14T01:16:21.031Z,101258.38
2023-02-14T01:18:48.511Z,101253.97
2023-02-14T01:21:27.044Z,101252.78
2023-02-14T01:23:57.311Z,101252.16
2023-02-14T01:26:25.213Z,101238.38
2023-02-14T01:28:52.791Z,101241.66
2023-02-14T01:31:24.720Z,101240.56
2023-02-14T01:33:51.986Z,101244.09
2023-02-14T01:36:24.311Z,101233.81
2023-02-14T01:38:52.421Z,101234.25
2023-02-14T01:41:20.151Z,101222.69
2023-02-14T01:43:50.028Z,101230.13
2023-02-14T01:46:17.335Z,101235.84
2023-02-14T01:48:44.798Z,101230.94
2023-02-14T01:51:13.189Z,101230.56
2023-02-14T01:53:40.328Z,101228.56
2023-02-14T01:56:08.475Z,101227.41
2023-02-14T01:58:36.550Z,101231.59
2023-02-14T02:01:04.125Z,101227.97
2023-02-14T02:03:34.540Z,101231.03
2023-02-14T02:06:13.953Z,101229.06
2023-02-14T02:08:48.549Z,101225.59
2023-02-14T02:11:15.720Z,101219.87
2023-02-14T02:13:43.236Z,101218.91
2023-02-14T02:16:34.239Z,101224.19
2023-02-14T02:19:10.469Z,101208.91
2023-02-14T02:22:07.481Z,101219.56
2023-02-14T02:24:36.557Z,101212.59
2023-02-14T02:27:08.586Z,101202.38
2023-02-14T02:29:40.939Z,101203.88
2023-02-14T02:32:14.428Z,101197.00
2023-02-14T02:35:00.352Z,101199.84
2023-02-14T02:37:34.073Z,101202.47
2023-02-14T02:40:04.810Z,101198.06
2023-02-14T02:42:45.994Z,101196.37
2023-02-14T02:45:20.606Z,101204.19
2023-02-14T02:47:53.602Z,101201.59
2023-02-14T02:50:47.943Z,101207.44
2023-02-14T02:53:26.263Z,101205.56
2023-02-14T02:56:20.224Z,101201.50
2023-02-14T02:58:51.532Z,101201.66
2023-02-14T03:01:21.090Z,101199.22
2023-02-14T03:04:09.058Z,101193.63
2023-02-14T03:06:36.207Z,101194.62
2023-02-14T03:09:13.262Z,101198.97
2023-02-14T03:11:41.712Z,101187.00
2023-02-14T03:14:16.047Z,101195.50
2023-02-14T03:17:04.845Z,101200.44
2023-02-14T03:20:10.371Z,101192.75
2023-02-14T03:22:40.586Z,101193.44
2023-02-14T03:25:14.092Z,101195.47
2023-02-14T03:27:48.710Z,101192.19
2023-02-14T03:30:19.201Z,101197.25
2023-02-14T03:32:58.654Z,101184.03
2023-02-14T03:35:29.033Z,101183.81
2023-02-14T03:38:05.577Z,101187.28
2023-02-14T03:40:43.032Z,101187.28
2023-02-14T03:43:14.215Z,101198.81
2023-02-14T03:45:51.571Z,101188.81
2023-02-14T03:48:19.006Z,101193.50
2023-02-14T03:50:46.574Z,101193.37
2023-02-14T03:53:13.744Z,101191.25
2023-02-14T03:55:59.859Z,101197.66
2023-02-14T03:58:28.583Z,101193.59
2023-02-14T04:00:58.075Z,101191.25
2023-02-14T04:03:25.850Z,101191.56
2023-02-14T04:05:53.027Z,101186.50
2023-02-14T04:08:20.740Z,101189.69
2023-02-14T04:10:48.402Z,101187.31
2023-02-14T04:13:15.508Z,101194.66
2023-02-14T04:15:42.709Z,101198.03
2023-02-14T04:18:45.706Z,101194.66
2023-02-14T04:21:12.858Z,101192.69
2023-02-14T04:23:40.403Z,101181.97
2023-02-14T04:26:07.574Z,101185.75
2023-02-14T04:28:34.747Z,101175.31
2023-02-14T04:31:03.458Z,101178.56
2023-02-14T04:33:31.139Z,101177.62
2023-02-14T04:35:58.341Z,101176.19
2023-02-14T04:38:25.767Z,101183.00
2023-02-14T04:40:52.948Z,101192.63
2023-02-14T04:43:20.097Z,101193.50
2023-02-14T04:45:47.716Z,101191.69
2023-02-14T04:48:14.879Z,101192.44
2023-02-14T04:50:41.989Z,101192.50
2023-02-14T04:53:09.371Z,101180.09
2023-02-14T04:55:38.339Z,101183.63
2023-02-14T04:58:05.672Z,101186.72
2023-02-14T05:00:33.102Z,101187.72
2023-02-14T05:03:00.330Z,101185.91
2023-02-14T05:05:27.516Z,101178.53
2023-02-14T05:07:54.944Z,101174.06
2023-02-14T05:10:22.163Z,101176.28
2023-02-14T05:12:49.333Z,101180.22
2023-02-14T05:15:16.822Z,101179.34
2023-02-14T05:17:43.976Z,101181.53
2023-02-14T05:20:11.226Z,101181.47
2023-02-14T05:22:38.657Z,101182.78
2023-02-14T05:25:06.272Z,101184.69
2023-02-14T05:27:33.444Z,101182.50
2023-02-14T05:30:00.889Z,101183.59
2023-02-14T05:32:28.066Z,101176.28
2023-02-14T05:34:55.253Z,101180.69
2023-02-14T05:37:22.750Z,101180.62
2023-02-14T05:39:49.932Z,101179.16
2023-02-14T05:42:17.281Z,101181.16
2023-02-14T05:44:44.686Z,101173.53
2023-02-14T05:47:13.177Z,101182.13
2023-02-14T05:49:40.511Z,101191.00
2023-02-14T05:52:07.946Z,101190.88
2023-02-14T05:54:35.180Z,101194.59
2023-02-14T05:57:02.295Z,101187.75
2023-02-14T05:59:29.709Z,101192.94
2023-02-14T06:01:57.000Z,101195.44
2023-02-14T06:04:24.553Z,101196.94
2023-02-14T06:06:51.737Z,101198.91
2023-02-14T06:09:19.900Z,101195.41
2023-02-14T06:11:47.373Z,101198.75
2023-02-14T06:14:14.559Z,101198.31
2023-02-14T06:16:41.804Z,101204.97
2023-02-14T06:19:09.289Z,101209.25
2023-02-14T06:21:36.471Z,101203.97
2023-02-14T06:24:03.643Z,101205.03
2023-02-14T06:26:31.186Z,101208.91
2023-02-14T06:28:58.802Z,101211.75
2023-02-14T06:31:26.157Z,101217.75
2023-02-14T06:33:53.614Z,101208.47
2023-02-14T06:36:21.702Z,101213.66
2023-02-14T06:38:49.086Z,101215.06
2023-02-14T06:41:17.259Z,101222.75
2023-02-14T06:43:45.264Z,101221.81
2023-02-14T06:46:12.486Z,101230.00
2023-02-14T06:48:39.931Z,101234.97
2023-02-14T06:51:07.267Z,101231.75
2023-02-14T06:53:34.533Z,101240.00
2023-02-14T06:56:01.971Z,101239.38
2023-02-14T06:58:29.098Z,101239.59
2023-02-14T07:00:56.581Z,101238.97
2023-02-14T07:03:24.250Z,101242.47
2023-02-14T07:05:51.755Z,101239.47
2023-02-14T07:08:19.032Z,101237.37
2023-02-14T07:10:46.547Z,101243.47
2023-02-14T07:13:13.678Z,101234.59
2023-02-14T07:15:40.848Z,101230.19
2023-02-14T07:18:11.712Z,101236.63
2023-02-14T07:20:38.876Z,101234.53
2023-02-14T07:23:06.050Z,101231.44
2023-02-14T07:25:33.618Z,101232.69
2023-02-14T07:28:00.770Z,101236.75
2023-02-14T07:30:28.006Z,101235.94
2023-02-14T07:32:55.442Z,101238.41
2023-02-14T07:35:22.576Z,101246.63
2023-02-14T07:37:50.084Z,101244.69
2023-02-14T07:40:17.743Z,101244.06
2023-02-14T07:42:44.883Z,101249.81
2023-02-14T07:45:27.216Z,101247.97
2023-02-14T07:47:55.188Z,101255.84
2023-02-14T07:50:22.761Z,101251.38
2023-02-14T07:52:49.952Z,101257.03
2023-02-14T07:55:17.448Z,101250.56
2023-02-14T07:57:44.599Z,101253.06
2023-02-14T08:00:12.061Z,101256.06
2023-02-14T08:02:39.202Z,101251.97
2023-02-14T08:05:06.708Z,101255.84
2023-02-14T08:07:33.993Z,101254.44
2023-02-14T08:10:01.136Z,101256.59
2023-02-14T08:12:47.112Z,101250.47
2023-02-14T08:15:32.987Z,101253.66
2023-02-14T08:18:00.422Z,101246.56
2023-02-14T08:20:27.648Z,101250.53
2023-02-14T08:22:55.006Z,101250.19
2023-02-14T08:25:22.465Z,101252.28
2023-02-14T08:27:49.657Z,101249.28
2023-02-14T08:30:16.935Z,101244.97
2023-02-14T08:32:44.420Z,101241.00
2023-02-14T08:35:11.595Z,101240.03
2023-02-14T08:37:38.842Z,101246.72
2023-02-14T08:40:06.667Z,101248.50
2023-02-14T08:42:33.815Z,101254.66
2023-02-14T08:45:01.030Z,101254.69
2023-02-14T08:47:28.853Z,101262.81
2023-02-14T08:49:56.017Z,101259.00
2023-02-14T08:52:23.457Z,101251.72
2023-02-14T08:54:50.921Z,101254.03
2023-02-14T08:57:18.249Z,101258.59
2023-02-14T08:59:45.429Z,101261.19
2023-02-14T09:02:13.754Z,101256.12
2023-02-14T09:04:41.021Z,101253.06
2023-02-14T09:07:08.324Z,101262.19
2023-02-14T09:09:35.745Z,101263.03
2023-02-14T09:12:07.042Z,101265.13
2023-02-14T09:14:37.696Z,101259.63
2023-02-14T09:17:05.866Z,101269.16
2023-02-14T09:19:33.429Z,101269.16
2023-02-14T09:22:00.665Z,101274.00
2023-02-14T09:24:28.314Z,101272.28
2023-02-14T09:26:57.359Z,101268.34
2023-02-14T09:29:24.855Z,101274.69
2023-02-14T09:31:55.847Z,101278.31
2023-02-14T09:34:42.023Z,101267.91
2023-02-14T09:37:31.305Z,101270.84
2023-02-14T09:39:58.429Z,101277.81
2023-02-14T09:42:42.681Z,101272.31
2023-02-14T09:45:14.175Z,101275.59
2023-02-14T09:47:50.364Z,101276.16
2023-02-14T09:50:52.876Z,101281.03
2023-02-14T09:53:20.634Z,101282.00
2023-02-14T09:56:06.940Z,101280.78
2023-02-14T09:58:35.976Z,101285.44
2023-02-14T10:01:16.466Z,101272.66
2023-02-14T10:04:02.727Z,101272.06
2023-02-14T10:06:45.198Z,101271.97
2023-02-14T10:09:16.007Z,101274.91
2023-02-14T10:11:43.852Z,101279.44
2023-02-14T10:14:12.170Z,101271.84
2023-02-14T10:16:47.418Z,101274.31
2023-02-14T10:19:23.717Z,101274.72
2023-02-14T10:22:11.351Z,101265.47
2023-02-14T10:24:40.591Z,101268.25
2023-02-14T10:27:11.784Z,101267.37
2023-02-14T10:29:38.950Z,101261.56
2023-02-14T10:32:07.141Z,101259.94
2023-02-14T10:34:39.670Z,101261.66
2023-02-14T10:37:06.780Z,101258.66
2023-02-14T10:39:46.875Z,101255.78
2023-02-14T10:42:20.287Z,101248.84
2023-02-14T10:44:59.741Z,101253.25
2023-02-14T10:47:29.903Z,101253.25
2023-02-14T10:50:18.349Z,101254.75
2023-02-14T10:52:53.270Z,101249.34
2023-02-14T10:55:31.902Z,101242.03
2023-02-14T10:58:00.041Z,101242.66
2023-02-14T11:00:28.702Z,101250.53
2023-02-14T11:02:59.665Z,101243.44
2023-02-14T11:05:34.556Z,101238.78
2023-02-14T11:08:02.304Z,101241.00
2023-02-14T11:10:31.176Z,101245.38
2023-02-14T11:12:58.425Z,101237.88
2023-02-14T11:15:27.685Z,101253.56
2023-02-14T11:18:07.951Z,101245.59
2023-02-14T11:20:35.386Z,101253.59
2023-02-14T11:23:02.999Z,101239.06
2023-02-14T11:25:30.661Z,101235.66
2023-02-14T11:27:59.126Z,101234.78
2023-02-14T11:30:28.372Z,101237.28
2023-02-14T11:32:56.338Z,101234.50
2023-02-14T11:35:26.992Z,101231.03
2023-02-14T11:37:55.015Z,101235.03
2023-02-14T11:40:28.157Z,101227.03
2023-02-14T11:43:12.927Z,101232.31
2023-02-14T11:45:44.757Z,101231.31
2023-02-14T11:48:37.074Z,101227.31
2023-02-14T11:51:06.583Z,101235.56
2023-02-14T11:53:45.908Z,101231.44
2023-02-14T11:56:13.524Z,101228.97
2023-02-14T11:59:03.061Z,101223.28
2023-02-14T12:01:30.947Z,101223.91
2023-02-14T12:03:59.995Z,101220.63
2023-02-14T12:06:30.962Z,101214.62
2023-02-14T12:09:17.106Z,101217.09
2023-02-14T12:11:54.529Z,101222.47
2023-02-14T12:14:22.639Z,101213.91
2023-02-14T12:16:55.944Z,101216.03
2023-02-14T12:19:41.845Z,101222.59
2023-02-14T12:22:08.964Z,101214.38
2023-02-14T12:24:37.007Z,101216.06
2023-02-14T12:27:07.125Z,101213.63
2023-02-14T12:29:38.219Z,101208.81
2023-02-14T12:32:25.894Z,101203.13
2023-02-14T12:35:06.220Z,101200.47
2023-02-14T12:38:02.713Z,101197.13
2023-02-14T12:40:38.452Z,101203.56
2023-02-14T12:43:15.088Z,101193.09
2023-02-14T12:45:49.083Z,101191.81
2023-02-14T12:48:34.918Z,101188.09
2023-02-14T12:51:08.254Z,101192.81
2023-02-14T12:53:44.710Z,101173.47
2023-02-14T12:56:11.917Z,101187.78
2023-02-14T12:58:47.039Z,101186.22
2023-02-14T13:01:16.335Z,101173.28
2023-02-14T13:03:54.682Z,101176.47
2023-02-14T13:06:29.686Z,101177.53
2023-02-14T13:09:04.001Z,101173.19
2023-02-14T13:11:34.747Z,101174.94
2023-02-14T13:14:05.710Z,101177.44
2023-02-14T13:16:50.144Z,101176.34
2023-02-14T13:19:26.758Z,101174.41
2023-02-14T13:21:53.973Z,101173.34
2023-02-14T13:24:22.007Z,101175.69
2023-02-14T13:26:49.894Z,101170.66
2023-02-14T13:29:18.110Z,101168.50
2023-02-14T13:31:45.952Z,101169.16
2023-02-14T13:34:13.124Z,101173.25
2023-02-14T13:36:40.362Z,101174.66
2023-02-14T13:39:07.776Z,101175.41
2023-02-14T13:41:35.871Z,101175.25
2023-02-14T13:44:05.426Z,101182.41
2023-02-14T13:46:32.913Z,101181.41
2023-02-14T13:49:00.084Z,101171.84
2023-02-14T13:51:43.442Z,101164.81
2023-02-14T13:54:21.025Z,101160.66
2023-02-14T13:56:48.444Z,101162.50
2023-02-14T13:59:48.207Z,101173.28
2023-02-14T14:02:29.939Z,101165.03
2023-02-14T14:04:57.760Z,101173.38
2023-02-14T14:07:30.871Z,101172.16
2023-02-14T14:10:02.066Z,101178.09
2023-02-14T14:12:29.960Z,101172.00
2023-02-14T14:15:06.421Z,101177.19
2023-02-14T14:17:37.993Z,101174.72
2023-02-14T14:20:20.753Z,101174.75
2023-02-14T14:22:51.932Z,101169.31
2023-02-14T14:25:31.226Z,101174.97
2023-02-14T14:27:58.428Z,101169.31
2023-02-14T14:30:28.498Z,101182.22
2023-02-14T14:32:55.660Z,101173.66
2023-02-14T14:35:24.074Z,101175.59
2023-02-14T14:37:52.748Z,101164.94
2023-02-14T14:40:33.135Z,101157.66
2023-02-14T14:43:01.656Z,101157.50
2023-02-14T14:45:29.099Z,101154.69
2023-02-14T14:47:56.806Z,101158.28
2023-02-14T14:50:25.106Z,101163.13
2023-02-14T14:53:12.554Z,101159.66
2023-02-14T14:55:41.183Z,101155.25
2023-02-14T14:58:28.625Z,101167.88
2023-02-14T15:00:56.260Z,101157.75
2023-02-14T15:03:25.343Z,101160.50
2023-02-14T15:05:52.561Z,101154.03
2023-02-14T15:08:32.006Z,101147.38
2023-02-14T15:10:59.556Z,101157.72
2023-02-14T15:13:57.461Z,101165.31
2023-02-14T15:16:28.553Z,101156.59
2023-02-14T15:18:59.856Z,101161.81
2023-02-14T15:21:27.122Z,101168.84
2023-02-14T15:23:56.675Z,101168.41
2023-02-14T15:26:28.237Z,101168.28
2023-02-14T15:28:59.531Z,101163.31
2023-02-14T15:31:39.934Z,101162.87
2023-02-14T15:34:07.140Z,101162.66
2023-02-14T15:36:34.767Z,101166.75
2023-02-14T15:39:03.281Z,101166.38
2023-02-14T15:41:30.402Z,101171.47
2023-02-14T15:43:57.906Z,101171.12
2023-02-14T15:46:28.015Z,101177.16
2023-02-14T15:48:55.298Z,101173.19
2023-02-14T15:51:24.509Z,101174.00
2023-02-14T15:53:53.182Z,101160.72
2023-02-14T15:56:22.011Z,101163.09
2023-02-14T15:58:49.745Z,101164.16
2023-02-14T16:01:20.041Z,101173.53
2023-02-14T16:03:49.301Z,101175.31
2023-02-14T16:06:29.306Z,101175.31
2023-02-14T16:08:58.105Z,101177.28
2023-02-14T16:11:35.608Z,101181.81
2023-02-14T16:14:21.978Z,101175.00
2023-02-14T16:16:58.485Z,101169.66
2023-02-14T16:19:45.226Z,101181.25
2023-02-14T16:22:13.296Z,101184.19
2023-02-14T16:24:42.038Z,101192.22
2023-02-14T16:27:09.274Z,101193.34
2023-02-14T16:29:36.609Z,101196.44
2023-02-14T16:32:16.293Z,101196.06
2023-02-14T16:34:45.558Z,101197.44
2023-02-14T16:37:18.967Z,101200.00
2023-02-14T16:39:46.114Z,101202.97
2023-02-14T16:42:15.034Z,101197.22
2023-02-14T16:44:42.267Z,101206.44
2023-02-14T16:47:12.987Z,101206.03
2023-02-14T16:49:40.788Z,101202.97
2023-02-14T16:52:12.933Z,101208.84
2023-02-14T16:54:40.369Z,101214.41
2023-02-14T16:57:07.634Z,101218.91
2023-02-14T16:59:34.961Z,101212.56
2023-02-14T17:02:02.565Z,101214.41
2023-02-14T17:04:29.789Z,101222.34
2023-02-14T17:06:57.478Z,101214.59
2023-02-14T17:09:27.256Z,101230.91
2023-02-14T17:11:54.690Z,101230.13
2023-02-14T17:14:23.043Z,101228.88
2023-02-14T17:16:50.881Z,101236.63
2023-02-14T17:19:18.198Z,101237.78
2023-02-14T17:21:45.573Z,101241.13
2023-02-14T17:24:12.992Z,101238.19
2023-02-14T17:26:40.144Z,101246.50
2023-02-14T17:29:07.507Z,101236.19
2023-02-14T17:31:35.174Z,101236.87
2023-02-14T17:34:02.633Z,101237.19
2023-02-14T17:36:30.094Z,101232.53
2023-02-14T17:38:57.716Z,101240.44
2023-02-14T17:41:25.678Z,101243.84
2023-02-14T17:43:54.767Z,101232.50
2023-02-14T17:46:22.447Z,101232.69
2023-02-14T17:48:52.659Z,101229.19
2023-02-14T17:51:20.456Z,101243.59
2023-02-14T17:53:48.417Z,101241.59
2023-02-14T17:56:22.743Z,101241.16
2023-02-14T17:58:51.431Z,101235.19
2023-02-14T18:01:22.706Z,101236.13
2023-02-14T18:03:52.085Z,101237.94
2023-02-14T18:06:19.538Z,101229.03
2023-02-14T18:08:49.764Z,101231.69
2023-02-14T18:11:17.878Z,101228.97
2023-02-14T18:13:45.497Z,101230.47
2023-02-14T18:16:13.901Z,101226.31
2023-02-14T18:18:41.555Z,101229.16
2023-02-14T18:21:09.988Z,101224.84
2023-02-14T18:23:37.533Z,101217.06
2023-02-14T18:26:10.442Z,101222.44
2023-02-14T18:28:38.022Z,101232.25
2023-02-14T18:31:06.847Z,101228.47
2023-02-14T18:33:34.303Z,101224.28
2023-02-14T18:36:02.821Z,101222.38
2023-02-14T18:38:30.366Z,101223.28
2023-02-14T18:41:01.637Z,101217.00
2023-02-14T18:43:29.276Z,101222.84
2023-02-14T18:46:02.107Z,101222.47
2023-02-14T18:48:29.851Z,101214.44
2023-02-14T18:51:04.106Z,101219.09
2023-02-14T18:53:31.270Z,101224.88
2023-02-14T18:55:58.856Z,101219.78
2023-02-14T18:58:26.270Z,101216.72
2023-02-14T19:00:53.515Z,101226.56
2023-02-14T19:03:21.176Z,101231.03
2023-02-14T19:05:48.590Z,101229.53
2023-02-14T19:08:19.558Z,101228.47
2023-02-14T19:10:47.202Z,101220.97
2023-02-14T19:13:14.590Z,101224.31
2023-02-14T19:15:44.786Z,101226.31
2023-02-14T19:18:15.218Z,101224.38
2023-02-14T19:20:42.634Z,101228.78
2023-02-14T19:23:09.944Z,101234.44
2023-02-14T19:25:37.941Z,101238.19
2023-02-14T19:28:06.781Z,101234.63
2023-02-14T19:30:34.669Z,101219.94
2023-02-14T19:33:02.321Z,101229.56
2023-02-14T19:35:29.756Z,101232.06
2023-02-14T19:37:58.950Z,101225.72
2023-02-14T19:40:26.608Z,101222.56
2023-02-14T19:42:54.016Z,101229.53
2023-02-14T19:45:21.397Z,101234.16
2023-02-14T19:47:49.614Z,101226.53
2023-02-14T19:50:17.724Z,101235.12
2023-02-14T19:52:44.987Z,101230.13
2023-02-14T19:55:20.079Z,101232.47
2023-02-14T19:57:50.760Z,101235.00
2023-02-14T20:00:18.938Z,101232.22
2023-02-14T20:02:48.160Z,101229.78
2023-02-14T20:05:15.981Z,101231.19
2023-02-14T20:07:43.485Z,101223.47
2023-02-14T20:10:11.645Z,101228.06
2023-02-14T20:12:39.187Z,101230.06
2023-02-14T20:15:10.829Z,101235.31
2023-02-14T20:17:39.004Z,101231.38
2023-02-14T20:20:07.838Z,101225.56
2023-02-14T20:22:36.415Z,101225.44
2023-02-14T20:25:05.600Z,101232.06
2023-02-14T20:27:33.228Z,101238.84
2023-02-14T20:30:00.653Z,101230.47
2023-02-14T20:32:28.300Z,101233.87
2023-02-14T20:34:57.254Z,101240.09
2023-02-14T20:37:25.390Z,101237.56
2023-02-14T20:39:53.017Z,101231.59
2023-02-14T20:42:20.505Z,101227.81
2023-02-14T20:44:48.730Z,101230.47
2023-02-14T20:47:17.430Z,101229.41
2023-02-14T20:49:44.866Z,101228.72
2023-02-14T20:52:13.228Z,101233.87
2023-02-14T20:54:40.864Z,101221.78
2023-02-14T20:57:08.364Z,101227.53
2023-02-14T20:59:37.730Z,101221.47
2023-02-14T21:02:05.335Z,101215.12
2023-02-14T21:04:32.712Z,101217.66
2023-02-14T21:07:03.996Z,101214.59
2023-02-14T21:09:32.930Z,101215.12
2023-02-14T21:12:00.343Z,101217.56
2023-02-14T21:14:27.692Z,101212.22
2023-02-14T21:16:56.497Z,101220.53
2023-02-14T21:19:23.998Z,101213.09
2023-02-14T21:21:52.303Z,101207.00
2023-02-14T21:24:19.994Z,101208.69
2023-02-14T21:26:47.159Z,101217.56
2023-02-14T21:29:14.545Z,101210.63
2023-02-14T21:31:43.069Z,101209.25
2023-02-14T21:34:10.346Z,101223.19
2023-02-14T21:36:37.709Z,101223.63
2023-02-14T21:39:06.138Z,101214.66
2023-02-14T21:41:34.056Z,101216.66
2023-02-14T21:44:01.759Z,101219.31
2023-02-14T21:46:31.084Z,101226.41
2023-02-14T21:49:18.218Z,101223.97
2023-02-14T21:51:46.483Z,101220.37
2023-02-14T21:54:13.915Z,101218.25
2023-02-14T21:56:41.554Z,101215.84
2023-02-14T21:59:09.738Z,101222.69
2023-02-14T22:01:37.966Z,101216.31
2023-02-14T22:04:07.805Z,101227.47
2023-02-14T22:06:36.007Z,101221.81
2023-02-14T22:09:03.453Z,101224.44
2023-02-14T22:11:30.976Z,101226.66
2023-02-14T22:13:58.875Z,101222.91
2023-02-14T22:16:26.089Z,101224.19
2023-02-14T22:18:53.492Z,101221.44
2023-02-14T22:21:21.712Z,101222.09
2023-02-14T22:23:49.002Z,101230.78
2023-02-14T22:26:23.838Z,101224.94
2023-02-14T22:28:51.653Z,101231.91
2023-02-14T22:31:19.248Z,101227.91
2023-02-14T22:33:47.012Z,101233.37
2023-02-14T22:36:14.433Z,101227.81
2023-02-14T22:38:42.285Z,101227.44
2023-02-14T22:41:13.423Z,101235.06
2023-02-14T22:43:40.700Z,101236.16
2023-02-14T22:46:09.698Z,101237.09
2023-02-14T22:48:37.221Z,101231.06
2023-02-14T22:51:07.472Z,101235.72
2023-02-14T22:53:35.035Z,101241.44
2023-02-14T22:56:31.448Z,101236.28
2023-02-14T22:58:59.554Z,101232.12
2023-02-14T23:01:27.004Z,101236.59
2023-02-14T23:03:54.825Z,101236.59
2023-02-14T23:06:22.748Z,101234.00
2023-02-14T23:08:49.953Z,101224.44
2023-02-14T23:11:21.296Z,101224.56
2023-02-14T23:14:07.042Z,101223.50
2023-02-14T23:16:52.742Z,101224.81
2023-02-14T23:19:40.102Z,101219.03
2023-02-14T23:22:08.845Z,101219.00
2023-02-14T23:24:39.268Z,101216.63
2023-02-14T23:27:07.087Z,101225.50
2023-02-14T23:29:34.389Z,101218.25
2023-02-14T23:32:01.942Z,101214.19
2023-02-14T23:34:29.597Z,101221.72
2023-02-14T23:36:56.751Z,101221.59
2023-02-14T23:39:24.191Z,101223.13
2023-02-14T23:41:51.462Z,101226.16
2023-02-14T23:44:25.226Z,101222.63
2023-02-14T23:46:53.511Z,101219.09
2023-02-14T23:49:20.841Z,101223.75
2023-02-14T23:51:48.454Z,101233.25
2023-02-14T23:54:16.156Z,101235.19
2023-02-14T23:56:43.554Z,101240.22
2023-02-14T23:59:11.239Z,101228.62
